Time;durP1;ratioP1;P1;durP2;ratioP2;P2;SDS_P1;SDS_P2;PMS_P1;PMS_P2;Temp;Humidity;BMP_temperature;BMP_pressure;BME280_temperature;BME280_humidity;BME280_pressure;Samples;Min_cycle;Max_cycle;Signal;HPM_P1;HPM_P2
2022/05/22 00:02:07;;;;;;;12.23;8.07;;;21.20;99.90;;;;;;5010511;28;20117;-77
2022/05/22 00:04:34;;;;;;;10.48;8.38;;;21.10;99.90;;;;;;5004850;28;20042;-77
2022/05/22 00:06:59;;;;;;;15.07;8.75;;;21.10;99.90;;;;;;4994895;28;20041;-76
2022/05/22 00:09:28;;;;;;;13.10;7.15;;;21.20;99.90;;;;;;4996500;28;20034;-77
2022/05/22 00:11:54;;;;;;;12.25;7.82;;;21.10;99.90;;;;;;4994372;28;20080;-77
2022/05/22 00:14:21;;;;;;;12.57;8.25;;;21.00;99.90;;;;;;5000902;28;20026;-76
2022/05/22 00:16:47;;;;;;;14.93;8.38;;;21.10;99.90;;;;;;5012517;28;20457;-76
2022/05/22 00:19:16;;;;;;;12.23;8.85;;;21.10;99.90;;;;;;5013457;28;20037;-77
2022/05/22 00:21:42;;;;;;;10.57;7.65;;;21.10;99.90;;;;;;5005349;28;20031;-77
2022/05/22 00:24:09;;;;;;;10.50;7.50;;;21.10;99.90;;;;;;4998779;28;20029;-76
2022/05/22 00:26:35;;;;;;;15.57;8.30;;;21.10;99.90;;;;;;5013757;28;20026;-76
2022/05/22 00:29:01;;;;;;;11.85;7.85;;;21.00;99.90;;;;;;5012363;28;20034;-76
2022/05/22 00:31:27;;;;;;;10.43;7.72;;;21.00;99.90;;;;;;5013410;28;20026;-76
2022/05/22 00:33:53;;;;;;;13.48;8.05;;;21.00;99.90;;;;;;5011224;28;20027;-76
2022/05/22 00:36:19;;;;;;;12.18;8.18;;;20.90;99.90;;;;;;4994029;28;20037;-77
2022/05/22 00:38:44;;;;;;;14.15;8.13;;;21.00;99.90;;;;;;4994847;28;20030;-76
2022/05/22 00:41:11;;;;;;;11.75;8.73;;;21.10;99.90;;;;;;4993626;28;20097;-77
2022/05/22 00:43:40;;;;;;;8.63;7.57;;;21.00;99.90;;;;;;4999387;28;20038;-76
2022/05/22 00:46:08;;;;;;;12.88;8.23;;;20.90;99.90;;;;;;4993924;28;20030;-77
2022/05/22 00:48:35;;;;;;;10.70;8.40;;;20.90;99.90;;;;;;5000348;28;20038;-76
2022/05/22 00:51:10;;;;;;;14.05;7.90;;;21.00;99.90;;;;;;5014062;28;20109;-76
2022/05/22 00:53:42;;;;;;;10.82;7.47;;;20.80;99.90;;;;;;5005712;28;20041;-79
2022/05/22 00:56:13;;;;;;;12.88;8.10;;;20.70;99.90;;;;;;4993140;28;20065;-76
2022/05/22 00:58:40;;;;;;;13.13;7.28;;;20.70;99.90;;;;;;4994766;28;20030;-76
2022/05/22 01:01:06;;;;;;;9.57;6.93;;;20.80;99.90;;;;;;4993685;28;20037;-76
2022/05/22 01:03:32;;;;;;;12.85;8.00;;;20.80;99.90;;;;;;4997674;28;20033;-76
2022/05/22 01:06:10;;;;;;;12.15;8.38;;;20.70;99.90;;;;;;5013081;28;20077;-76
2022/05/22 01:08:37;;;;;;;11.55;8.52;;;20.60;99.90;;;;;;5007938;28;20040;-76
2022/05/22 01:11:14;;;;;;;10.70;7.63;;;20.50;99.90;;;;;;4994322;28;20073;-76
2022/05/22 01:13:43;;;;;;;9.98;7.90;;;20.50;99.90;;;;;;4998648;28;20684;-76
2022/05/22 01:16:09;;;;;;;12.30;7.72;;;20.50;99.90;;;;;;5013149;28;20042;-77
2022/05/22 01:18:45;;;;;;;13.75;7.70;;;20.60;99.90;;;;;;5011866;28;20036;-76
2022/05/22 01:21:14;;;;;;;12.55;7.70;;;20.40;99.90;;;;;;5013164;28;20030;-76
2022/05/22 01:23:40;;;;;;;9.30;7.93;;;20.50;99.90;;;;;;5004752;28;20080;-76
2022/05/22 01:26:05;;;;;;;11.05;7.85;;;20.50;99.90;;;;;;5013029;28;20038;-76
2022/05/22 01:28:31;;;;;;;12.75;7.88;;;20.40;99.90;;;;;;5001274;28;20444;-76
2022/05/22 01:30:57;;;;;;;14.82;8.05;;;20.40;99.90;;;;;;4998702;28;20481;-76
2022/05/22 01:33:22;;;;;;;11.85;8.27;;;20.40;99.90;;;;;;5008502;28;20423;-76
2022/05/22 01:35:48;;;;;;;12.80;8.55;;;20.40;99.90;;;;;;4993413;28;20081;-76
2022/05/22 01:38:14;;;;;;;11.15;7.93;;;20.40;99.90;;;;;;4994262;28;20545;-76
2022/05/22 01:40:39;;;;;;;11.32;7.47;;;20.40;99.90;;;;;;4994042;28;20062;-76
2022/05/22 01:43:05;;;;;;;14.40;9.23;;;20.40;99.90;;;;;;4993956;28;20109;-76
2022/05/22 01:45:31;;;;;;;11.18;9.27;;;20.30;99.90;;;;;;5012621;28;20468;-76
2022/05/22 01:47:57;;;;;;;15.23;8.98;;;20.30;99.90;;;;;;5003718;28;20045;-77
2022/05/22 01:50:23;;;;;;;12.68;9.02;;;20.00;99.90;;;;;;4993444;28;20038;-76
2022/05/22 01:52:49;;;;;;;13.30;8.40;;;20.00;99.90;;;;;;5000217;28;20065;-76
2022/05/22 01:55:15;;;;;;;11.57;8.73;;;20.00;99.90;;;;;;4996750;28;20034;-77
2022/05/22 01:57:41;;;;;;;17.70;10.65;;;20.10;99.90;;;;;;4997662;28;20109;-77
2022/05/22 02:00:10;;;;;;;13.00;9.75;;;20.20;99.90;;;;;;4996577;28;20501;-77
2022/05/22 02:02:35;;;;;;;15.60;9.20;;;20.50;99.90;;;;;;5000640;28;20033;-77
2022/05/22 02:05:02;;;;;;;9.10;7.75;;;20.60;99.90;;;;;;5016294;28;20045;-76
2022/05/22 02:10:14;;;;;;;17.98;10.82;;;20.50;99.90;;;;;;4996695;28;20500;-77
2022/05/22 02:12:39;;;;;;;13.82;9.80;;;20.30;99.90;;;;;;4999885;28;20120;-76
2022/05/22 02:15:07;;;;;;;11.50;9.70;;;20.30;99.90;;;;;;5016111;28;20026;-77
2022/05/22 02:17:33;;;;;;;16.08;9.18;;;20.10;99.90;;;;;;5014330;28;20070;-76
2022/05/22 02:19:59;;;;;;;14.63;9.93;;;20.10;99.90;;;;;;5016000;28;20034;-76
2022/05/22 02:22:25;;;;;;;11.05;8.98;;;19.90;99.90;;;;;;5006690;28;20027;-76
2022/05/22 02:24:51;;;;;;;13.77;9.20;;;19.70;99.90;;;;;;4996293;28;20047;-77
2022/05/22 02:27:17;;;;;;;10.77;8.50;;;19.60;99.90;;;;;;5007491;28;20034;-76
2022/05/22 02:29:43;;;;;;;14.77;9.48;;;19.70;99.90;;;;;;4995973;28;20026;-77
2022/05/22 02:32:09;;;;;;;14.18;8.98;;;19.70;99.90;;;;;;5006768;28;20092;-77
2022/05/22 02:34:35;;;;;;;11.38;9.10;;;19.70;99.90;;;;;;5015366;28;20030;-77
2022/05/22 02:37:00;;;;;;;13.60;9.55;;;19.70;99.90;;;;;;5014034;28;20029;-77
2022/05/22 02:39:26;;;;;;;12.00;9.48;;;19.80;99.90;;;;;;5011789;28;20061;-76
2022/05/22 02:41:52;;;;;;;13.10;8.73;;;19.90;99.90;;;;;;5005385;28;20532;-77
2022/05/22 02:44:18;;;;;;;12.75;9.05;;;19.90;99.90;;;;;;4998607;28;20034;-77
2022/05/22 02:46:44;;;;;;;10.65;8.35;;;19.70;99.90;;;;;;5015374;28;20444;-76
2022/05/22 02:49:10;;;;;;;12.68;8.48;;;19.60;99.90;;;;;;5000036;28;20030;-76
2022/05/22 02:51:36;;;;;;;14.05;7.97;;;19.60;99.90;;;;;;4995963;28;20041;-76
2022/05/22 02:54:02;;;;;;;11.57;8.70;;;19.50;99.90;;;;;;4996741;28;20026;-77
2022/05/22 02:56:28;;;;;;;11.95;8.50;;;19.40;99.90;;;;;;4995856;28;20191;-76
2022/05/22 02:58:54;;;;;;;13.90;8.60;;;19.50;99.90;;;;;;5002079;28;20119;-76
2022/05/22 03:01:20;;;;;;;11.10;8.35;;;19.50;99.90;;;;;;5006257;28;20034;-76
2022/05/22 03:03:46;;;;;;;13.80;9.30;;;19.50;99.90;;;;;;5002992;28;20034;-77
2022/05/22 03:08:56;;;;;;;14.15;10.10;;;19.70;99.90;;;;;;4998636;28;20041;-78
2022/05/22 03:11:22;;;;;;;16.27;10.88;;;19.80;99.90;;;;;;5001664;28;20112;-78
2022/05/22 03:13:48;;;;;;;12.80;9.60;;;19.80;99.90;;;;;;5011710;28;20030;-80
2022/05/22 03:16:14;;;;;;;11.38;8.30;;;19.70;99.90;;;;;;5009116;28;20033;-77
2022/05/22 03:18:40;;;;;;;12.43;8.45;;;19.70;99.90;;;;;;4991129;28;20030;-81
2022/05/22 03:21:06;;;;;;;12.60;9.23;;;19.60;99.90;;;;;;4996160;28;20461;-76
2022/05/22 03:23:31;;;;;;;13.40;10.05;;;19.60;99.90;;;;;;4995744;28;20030;-78
2022/05/22 03:25:57;;;;;;;11.40;8.75;;;19.60;99.90;;;;;;5011304;28;20518;-77
2022/05/22 03:28:23;;;;;;;15.90;10.27;;;19.60;99.90;;;;;;5009859;28;20037;-77
2022/05/22 03:30:49;;;;;;;12.10;8.70;;;19.70;99.90;;;;;;5005976;28;20103;-77
2022/05/22 03:33:15;;;;;;;11.85;9.00;;;19.60;99.90;;;;;;4992459;28;20041;-76
2022/05/22 03:35:42;;;;;;;13.38;10.50;;;19.50;99.90;;;;;;4991738;28;20030;-77
2022/05/22 03:38:07;;;;;;;11.68;8.32;;;19.60;99.90;;;;;;4991509;28;20022;-77
2022/05/22 03:40:40;;;;;;;13.70;9.45;;;19.70;99.90;;;;;;5007685;28;20088;-77
2022/05/22 03:43:05;;;;;;;11.70;9.35;;;19.70;99.90;;;;;;4991256;28;20030;-77
2022/05/22 03:45:31;;;;;;;10.98;9.00;;;19.50;99.90;;;;;;4992272;28;20173;-78
2022/05/22 03:47:57;;;;;;;14.90;10.35;;;19.10;99.90;;;;;;4991465;28;20057;-78
2022/05/22 03:50:24;;;;;;;11.57;8.52;;;19.50;99.90;;;;;;5006754;28;20542;-78
2022/05/22 03:52:51;;;;;;;19.73;9.48;;;19.60;99.90;;;;;;4991291;28;20054;-78
2022/05/22 03:55:18;;;;;;;13.32;8.93;;;19.60;99.90;;;;;;4992060;28;20027;-82
2022/05/22 03:57:48;;;;;;;12.23;10.00;;;19.50;99.90;;;;;;4992334;28;20037;-79
2022/05/22 04:00:16;;;;;;;11.90;8.48;;;19.40;99.90;;;;;;5007572;28;20105;-78
2022/05/22 04:02:43;;;;;;;14.15;9.43;;;19.60;99.90;;;;;;4988136;28;20385;-77
2022/05/22 04:05:09;;;;;;;12.77;9.32;;;19.40;99.90;;;;;;4987728;28;20394;-77
2022/05/22 04:07:37;;;;;;;13.98;10.05;;;19.50;99.90;;;;;;5006728;28;20512;-78
2022/05/22 04:10:03;;;;;;;13.40;9.52;;;19.50;99.90;;;;;;5008288;28;20794;-80
2022/05/22 04:12:29;;;;;;;11.63;8.55;;;19.30;99.90;;;;;;4989879;28;20060;-78
2022/05/22 04:14:54;;;;;;;13.30;9.90;;;19.30;99.90;;;;;;4988738;28;20453;-77
2022/05/22 04:17:20;;;;;;;12.57;9.05;;;19.40;99.90;;;;;;4988631;28;20042;-77
2022/05/22 04:19:46;;;;;;;13.00;9.15;;;19.30;99.90;;;;;;4993711;28;20502;-77
2022/05/22 04:22:11;;;;;;;15.80;9.27;;;19.40;99.90;;;;;;4993103;28;20038;-83
2022/05/22 04:27:21;;;;;;;;;;;19.00;99.90;;;;;;5007950;28;20061;-77
2022/05/22 04:29:47;;;;;;;13.25;8.43;;;18.90;99.90;;;;;;4992896;28;19909;-77
2022/05/22 04:32:12;;;;;;;15.80;9.52;;;19.10;99.90;;;;;;5001379;28;20026;-77
2022/05/22 04:34:38;;;;;;;10.13;8.40;;;19.00;99.90;;;;;;5007839;28;20033;-78
2022/05/22 04:37:04;;;;;;;19.17;9.27;;;19.00;99.90;;;;;;4995391;28;20500;-77
2022/05/22 04:39:30;;;;;;;12.05;9.93;;;19.00;99.90;;;;;;4988043;28;20041;-77
2022/05/22 04:41:55;;;;;;;11.50;8.50;;;19.00;99.90;;;;;;4989077;28;20030;-77
2022/05/22 04:44:21;;;;;;;17.33;9.02;;;19.00;99.90;;;;;;4988267;28;20041;-79
2022/05/22 04:46:47;;;;;;;11.77;8.73;;;19.10;99.90;;;;;;4988425;28;20045;-77
2022/05/22 04:49:12;;;;;;;12.13;9.60;;;19.30;99.90;;;;;;4988000;28;20034;-77
2022/05/22 04:51:38;;;;;;;12.70;9.20;;;19.30;99.90;;;;;;4996165;28;20083;-77
2022/05/22 04:54:04;;;;;;;14.85;9.98;;;19.30;99.90;;;;;;5007733;28;20026;-79
2022/05/22 04:56:30;;;;;;;12.05;9.38;;;19.50;99.90;;;;;;5000542;28;20031;-78
2022/05/22 04:58:56;;;;;;;13.45;9.38;;;19.60;99.90;;;;;;4988061;28;20653;-82
2022/05/22 05:01:22;;;;;;;14.55;9.38;;;19.70;99.90;;;;;;4993914;28;20033;-76
2022/05/22 05:03:47;;;;;;;13.52;9.50;;;19.70;99.90;;;;;;5006209;28;20125;-78
2022/05/22 05:06:13;;;;;;;13.23;8.77;;;19.80;99.90;;;;;;4998183;28;20041;-77
2022/05/22 05:08:39;;;;;;;10.82;9.15;;;19.90;99.90;;;;;;4998313;28;20036;-81
2022/05/22 05:11:04;;;;;;;13.70;9.88;;;19.80;99.90;;;;;;4987258;28;20027;-81
2022/05/22 05:13:30;;;;;;;13.55;9.65;;;20.00;99.90;;;;;;5000082;28;20029;-77
2022/05/22 05:16:06;;;;;;;11.80;9.63;;;20.10;99.90;;;;;;5006691;28;20022;-77
2022/05/22 05:18:33;;;;;;;14.48;9.27;;;20.30;99.90;;;;;;5007110;28;20476;-77
2022/05/22 05:21:01;;;;;;;19.70;9.00;;;20.20;99.90;;;;;;5005306;28;20063;-81
2022/05/22 05:23:27;;;;;;;14.23;9.77;;;20.30;99.90;;;;;;5007077;28;20036;-77
2022/05/22 05:25:53;;;;;;;18.27;11.18;;;20.30;99.90;;;;;;4998435;28;20045;-77
2022/05/22 05:28:19;;;;;;;19.48;10.20;;;20.10;99.90;;;;;;5006554;28;20037;-77
2022/05/22 05:30:44;;;;;;;15.00;10.55;;;20.00;99.90;;;;;;5007177;28;20037;-78
2022/05/22 05:33:10;;;;;;;20.58;11.27;;;20.00;99.90;;;;;;5010680;28;20072;-82
2022/05/22 05:35:36;;;;;;;14.82;11.10;;;20.00;99.90;;;;;;5006859;28;20125;-77
2022/05/22 05:38:02;;;;;;;13.45;10.65;;;19.90;99.90;;;;;;4991279;28;20023;-77
2022/05/22 05:40:29;;;;;;;15.20;9.55;;;19.90;99.90;;;;;;4992107;28;20088;-78
2022/05/22 05:42:54;;;;;;;15.23;11.23;;;19.90;99.90;;;;;;4990840;28;20125;-77
2022/05/22 05:45:20;;;;;;;13.85;9.30;;;19.90;99.90;;;;;;4994128;28;20654;-77
2022/05/22 05:47:47;;;;;;;12.18;9.43;;;20.00;99.90;;;;;;5010836;28;20025;-77
2022/05/22 05:50:16;;;;;;;11.52;10.00;;;20.00;99.90;;;;;;5009124;28;20034;-78
2022/05/22 05:52:41;;;;;;;10.93;9.40;;;20.10;99.90;;;;;;5010484;28;20034;-78
2022/05/22 05:55:08;;;;;;;11.10;8.70;;;20.10;99.90;;;;;;5009103;28;20362;-77
2022/05/22 05:57:34;;;;;;;12.27;9.27;;;20.10;99.90;;;;;;4990594;28;20039;-81
2022/05/22 06:00:00;;;;;;;13.25;9.13;;;20.10;99.90;;;;;;4990917;28;20105;-78
2022/05/22 06:02:26;;;;;;;13.45;9.77;;;20.10;99.90;;;;;;4992095;28;20125;-78
2022/05/22 06:04:51;;;;;;;10.98;9.52;;;20.10;99.90;;;;;;4990577;28;20066;-82
2022/05/22 06:07:17;;;;;;;15.90;9.82;;;20.10;99.90;;;;;;4991413;28;20479;-79
2022/05/22 06:09:43;;;;;;;15.57;10.63;;;20.10;99.90;;;;;;4997067;28;20109;-77
2022/05/22 06:12:08;;;;;;;13.18;10.40;;;20.30;99.90;;;;;;5010314;28;20026;-77
2022/05/22 06:14:34;;;;;;;19.42;11.65;;;20.30;99.90;;;;;;5007609;28;20034;-77
2022/05/22 06:17:00;;;;;;;13.70;9.80;;;20.30;99.90;;;;;;4990185;28;20026;-79
2022/05/22 06:22:15;;;;;;;12.80;10.52;;;20.50;99.90;;;;;;5009797;28;20077;-78
2022/05/22 06:24:41;;;;;;;14.40;10.05;;;20.60;99.90;;;;;;5007742;28;20129;-77
2022/05/22 06:27:06;;;;;;;16.00;9.85;;;20.70;99.90;;;;;;4990148;28;20126;-78
2022/05/22 06:29:32;;;;;;;13.02;10.65;;;20.70;99.90;;;;;;4992567;28;20080;-77
2022/05/22 06:31:58;;;;;;;10.80;8.80;;;20.80;99.90;;;;;;4996728;28;20023;-80
2022/05/22 06:34:24;;;;;;;11.50;8.13;;;20.90;99.90;;;;;;5007974;28;20034;-79
2022/05/22 06:36:51;;;;;;;14.15;9.90;;;20.90;99.90;;;;;;5009690;28;20045;-77
2022/05/22 06:42:02;;;;;;;14.35;8.90;;;21.30;99.90;;;;;;4989787;28;20109;-80
2022/05/22 06:44:28;;;;;;;11.73;9.00;;;21.40;99.90;;;;;;4991647;28;20076;-76
2022/05/22 06:46:54;;;;;;;12.75;9.10;;;21.50;99.90;;;;;;5008985;28;20069;-83
2022/05/22 06:49:19;;;;;;;15.60;10.13;;;21.60;99.90;;;;;;5008603;28;20022;-77
2022/05/22 06:51:46;;;;;;;11.10;8.32;;;21.70;99.90;;;;;;4989999;28;20081;-77
2022/05/22 06:54:12;;;;;;;11.65;8.50;;;21.80;99.90;;;;;;4989622;28;20594;-78
2022/05/22 06:56:38;;;;;;;14.57;9.15;;;21.70;99.90;;;;;;4991188;28;20026;-81
2022/05/22 06:59:03;;;;;;;14.50;8.85;;;21.60;99.80;;;;;;4990561;28;20030;-78
2022/05/22 07:01:29;;;;;;;12.15;9.77;;;21.70;99.90;;;;;;4998629;28;20917;-77
2022/05/22 07:03:55;;;;;;;11.60;9.20;;;21.80;99.90;;;;;;4989430;28;20042;-79
2022/05/22 07:06:20;;;;;;;17.70;9.80;;;21.90;99.90;;;;;;4990503;28;20378;-82
2022/05/22 07:08:46;;;;;;;12.88;8.95;;;21.90;99.90;;;;;;5001524;28;20037;-81
2022/05/22 07:14:08;;;;;;;11.50;9.02;;;22.10;99.30;;;;;;4993368;28;20092;-77
2022/05/22 07:16:35;;;;;;;12.25;8.88;;;22.20;99.00;;;;;;5004996;28;20034;-77
2022/05/22 07:19:02;;;;;;;11.40;8.98;;;22.30;99.30;;;;;;5009910;28;20025;-79
2022/05/22 07:21:28;;;;;;;12.77;9.10;;;22.40;99.50;;;;;;5009713;28;20480;-77
2022/05/22 07:23:54;;;;;;;10.15;8.23;;;22.60;99.20;;;;;;4993247;28;20034;-77
2022/05/22 07:26:21;;;;;;;13.18;9.55;;;22.80;98.80;;;;;;4989545;28;20041;-77
2022/05/22 07:28:47;;;;;;;12.10;8.60;;;22.90;98.50;;;;;;5011142;28;20112;-76
2022/05/22 07:31:15;;;;;;;13.15;9.07;;;22.80;98.70;;;;;;5012133;28;20034;-81
2022/05/22 07:33:41;;;;;;;10.98;9.57;;;23.20;98.00;;;;;;5001980;28;20034;-79
2022/05/22 07:36:07;;;;;;;15.13;9.63;;;23.60;97.40;;;;;;4998765;28;20041;-77
2022/05/22 07:38:32;;;;;;;12.68;9.40;;;24.00;97.30;;;;;;4988465;28;20030;-77
2022/05/22 07:40:58;;;;;;;11.48;9.20;;;24.40;96.80;;;;;;4988651;28;20049;-78
2022/05/22 07:43:24;;;;;;;10.38;8.18;;;24.90;95.90;;;;;;5009570;28;20468;-78
2022/05/22 07:45:49;;;;;;;11.13;8.50;;;25.40;96.20;;;;;;5010512;28;20113;-77
2022/05/22 07:48:15;;;;;;;12.98;8.73;;;25.70;95.90;;;;;;4993192;28;20584;-77
2022/05/22 07:50:41;;;;;;;10.82;9.27;;;26.40;94.90;;;;;;4991349;28;20038;-77
2022/05/22 07:53:07;;;;;;;14.82;9.77;;;26.00;94.40;;;;;;5005112;28;20029;-79
2022/05/22 07:55:33;;;;;;;12.65;9.93;;;25.80;94.80;;;;;;5009119;28;20022;-78
2022/05/22 07:57:58;;;;;;;11.32;8.23;;;25.50;95.30;;;;;;5010718;28;20022;-77
2022/05/22 08:00:24;;;;;;;11.05;8.75;;;25.50;94.80;;;;;;5013659;28;20064;-78
2022/05/22 08:02:49;;;;;;;11.70;8.30;;;25.70;94.80;;;;;;4991235;28;20022;-78
2022/05/22 08:05:18;;;;;;;12.35;8.27;;;25.70;94.40;;;;;;5004981;28;20042;-77
2022/05/22 08:07:44;;;;;;;11.32;8.27;;;25.70;94.60;;;;;;4991347;28;20027;-76
2022/05/22 08:10:11;;;;;;;11.73;8.52;;;25.00;94.90;;;;;;5003548;28;20121;-77
2022/05/22 08:12:38;;;;;;;13.45;8.48;;;25.00;95.40;;;;;;5000707;28;20034;-76
2022/05/22 08:15:05;;;;;;;10.55;8.63;;;24.60;95.20;;;;;;4990233;28;20097;-77
2022/05/22 08:17:35;;;;;;;14.35;8.30;;;24.40;94.90;;;;;;5000933;28;20077;-77
2022/05/22 08:20:06;;;;;;;10.48;8.15;;;24.40;95.20;;;;;;4995399;28;20058;-77
2022/05/22 08:22:32;;;;;;;9.15;7.53;;;24.70;95.60;;;;;;4994339;28;20054;-77
2022/05/22 08:24:59;;;;;;;16.55;9.48;;;24.90;94.80;;;;;;4990059;28;20588;-78
2022/05/22 08:27:25;;;;;;;12.27;8.43;;;24.90;94.60;;;;;;4999568;28;20091;-78
2022/05/22 08:29:50;;;;;;;15.15;8.23;;;24.70;94.80;;;;;;5008838;28;20484;-76
2022/05/22 08:32:16;;;;;;;13.38;9.07;;;24.70;94.90;;;;;;5004405;28;20105;-78
2022/05/22 08:34:42;;;;;;;10.50;8.18;;;24.70;94.70;;;;;;4999860;28;20112;-77
2022/05/22 08:37:07;;;;;;;9.88;8.48;;;24.90;95.00;;;;;;4997580;28;20030;-77
2022/05/22 08:39:33;;;;;;;11.15;7.18;;;25.00;95.20;;;;;;4991134;28;20643;-75
2022/05/22 08:41:59;;;;;;;11.15;7.20;;;24.90;95.60;;;;;;4989163;28;20054;-75
2022/05/22 08:44:32;;;;;;;13.07;8.00;;;24.70;95.30;;;;;;5005801;28;20042;-77
2022/05/22 08:47:10;;;;;;;12.15;8.05;;;24.40;95.10;;;;;;4994247;28;20037;-77
2022/05/22 08:49:42;;;;;;;12.57;8.38;;;24.90;94.90;;;;;;5008722;28;20033;-77
2022/05/22 08:52:46;;;;;;;10.93;7.47;;;25.00;94.10;;;;;;4996513;28;20022;-77
2022/05/22 08:55:19;;;;;;;9.23;7.63;;;25.20;94.60;;;;;;4988677;28;20056;-77
2022/05/22 09:00:34;;;;;;;11.02;7.57;;;25.20;94.50;;;;;;4996340;28;19913;-77
2022/05/22 09:03:09;;;;;;;17.48;9.07;;;25.70;95.20;;;;;;4988218;28;20038;-77
2022/05/22 09:05:36;;;;;;;11.82;7.82;;;25.50;94.50;;;;;;4989331;28;20051;-77
2022/05/22 09:08:35;;;;;;;9.65;7.93;;;25.80;94.50;;;;;;4989495;28;20596;-77
2022/05/22 09:11:01;;;;;;;9.25;8.20;;;25.70;94.50;;;;;;4989793;28;20026;-77
2022/05/22 09:13:48;;;;;;;14.00;8.23;;;26.00;93.80;;;;;;4989709;28;20037;-78
2022/05/22 09:16:14;;;;;;;15.45;7.95;;;26.00;93.70;;;;;;4997820;28;20026;-77
2022/05/22 09:18:42;;;;;;;11.82;8.65;;;25.80;93.50;;;;;;4995305;28;20042;-77
2022/05/22 09:21:15;;;;;;;10.85;7.82;;;25.90;93.50;;;;;;5005362;28;20033;-77
2022/05/22 09:23:56;;;;;;;9.95;7.13;;;26.30;93.30;;;;;;5007019;28;20030;-77
2022/05/22 09:26:30;;;;;;;10.82;7.72;;;26.40;92.90;;;;;;5009047;28;20029;-77
2022/05/22 09:29:12;;;;;;;8.50;7.03;;;26.00;92.80;;;;;;5009219;28;20649;-77
2022/05/22 09:32:18;;;;;;;10.25;7.60;;;25.90;92.80;;;;;;5009178;28;20080;-77
2022/05/22 09:35:11;;;;;;;9.57;6.90;;;26.10;92.90;;;;;;5014862;28;20046;-78
2022/05/22 09:37:54;;;;;;;12.50;8.20;;;26.60;93.30;;;;;;5004712;28;20034;-77
2022/05/22 09:40:50;;;;;;;10.50;8.23;;;26.70;92.70;;;;;;4988975;28;20031;-78
2022/05/22 09:43:25;;;;;;;14.23;7.45;;;26.70;93.00;;;;;;4989147;28;20745;-77
2022/05/22 09:46:15;;;;;;;12.27;7.70;;;27.00;92.70;;;;;;4990346;28;20061;-76
2022/05/22 09:49:15;;;;;;;36.67;8.75;;;26.70;92.30;;;;;;4989498;28;20038;-77
2022/05/22 09:51:50;;;;;;;14.32;8.18;;;26.90;93.00;;;;;;4988916;28;20024;-78
2022/05/22 09:54:31;;;;;;;13.40;7.78;;;26.50;92.60;;;;;;5006671;28;20072;-78
2022/05/22 09:57:08;;;;;;;10.98;8.27;;;26.20;93.00;;;;;;5008306;28;20113;-78
2022/05/22 09:59:55;;;;;;;18.50;8.00;;;26.10;93.70;;;;;;5008305;28;20614;-77
2022/05/22 10:02:24;;;;;;;12.32;8.93;;;25.90;93.50;;;;;;5003252;28;20027;-78
2022/05/22 10:05:35;;;;;;;14.80;8.38;;;26.40;93.50;;;;;;4988930;28;20047;-77
2022/05/22 10:08:24;;;;;;;10.95;7.82;;;26.50;93.30;;;;;;4996189;28;20046;-77
2022/05/22 10:11:04;;;;;;;12.70;8.63;;;26.50;93.90;;;;;;5000223;28;20491;-78
2022/05/22 10:13:46;;;;;;;11.45;7.75;;;26.40;93.00;;;;;;4987833;28;20101;-78
2022/05/22 10:16:30;;;;;;;11.55;8.45;;;26.40;93.50;;;;;;5002686;28;20441;-78
2022/05/22 10:19:14;;;;;;;9.88;8.02;;;26.50;93.20;;;;;;5012258;28;20618;-78
2022/05/22 10:22:04;;;;;;;15.32;8.52;;;26.70;93.50;;;;;;4995201;28;20038;-78
2022/05/22 10:24:35;;;;;;;14.07;8.70;;;26.90;93.50;;;;;;4993507;28;20344;-78
2022/05/22 10:27:07;;;;;;;9.85;7.93;;;27.30;93.70;;;;;;4998773;28;20512;-78
2022/05/22 10:29:54;;;;;;;22.83;9.00;;;27.30;93.10;;;;;;5011860;28;20527;-78
2022/05/22 10:32:52;;;;;;;12.20;7.88;;;27.30;93.10;;;;;;5001770;28;20030;-77
2022/05/22 10:35:18;;;;;;;15.40;8.88;;;27.40;93.20;;;;;;4990496;28;20611;-78
2022/05/22 10:38:02;;;;;;;11.88;8.73;;;28.00;93.00;;;;;;4992202;28;20113;-77
2022/05/22 10:42:44;;;;;;;15.65;9.20;;;27.60;92.60;;;;;;4993245;28;20432;-77
2022/05/22 10:43:14;;;;;;;12.15;8.25;;;27.70;93.30;;;;;;4991642;28;20066;-77
2022/05/22 10:45:40;;;;;;;16.58;9.10;;;28.00;92.60;;;;;;4992645;28;20523;-77
2022/05/22 10:48:23;;;;;;;10.13;8.85;;;27.70;92.60;;;;;;4997792;28;20265;-78
2022/05/22 10:50:56;;;;;;;12.52;9.60;;;27.90;93.10;;;;;;4989670;28;20069;-78
2022/05/22 10:53:53;;;;;;;17.67;7.95;;;27.30;92.90;;;;;;4992037;28;20380;-78
2022/05/22 10:56:22;;;;;;;10.43;8.05;;;28.10;93.30;;;;;;5002876;28;20499;-77
2022/05/22 10:58:53;;;;;;;18.95;8.88;;;28.50;92.60;;;;;;5003039;28;20040;-80
2022/05/22 11:01:22;;;;;;;12.93;8.60;;;28.90;92.90;;;;;;4989228;28;20750;-78
2022/05/22 11:03:48;;;;;;;18.27;9.13;;;28.90;92.20;;;;;;4989487;28;20057;-79
2022/05/22 11:06:20;;;;;;;15.85;9.20;;;29.00;92.40;;;;;;5000594;28;20042;-78
2022/05/22 11:08:54;;;;;;;14.00;10.02;;;29.40;92.00;;;;;;4988213;28;20503;-77
2022/05/22 11:11:26;;;;;;;12.32;8.30;;;28.90;92.30;;;;;;4989778;28;20592;-78
2022/05/22 11:13:52;;;;;;;13.13;8.77;;;29.40;92.90;;;;;;4988937;28;20026;-77
2022/05/22 11:16:24;;;;;;;12.05;8.10;;;29.50;92.70;;;;;;4991433;28;20388;-78
2022/05/22 11:19:09;;;;;;;10.90;7.93;;;29.70;91.70;;;;;;5006080;28;20483;-80
2022/05/22 11:21:56;;;;;;;11.65;7.80;;;29.80;91.80;;;;;;4988106;28;20026;-78
2022/05/22 11:24:37;;;;;;;12.55;8.02;;;29.70;91.80;;;;;;4994372;28;20577;-77
2022/05/22 11:27:15;;;;;;;11.60;7.68;;;29.60;91.30;;;;;;4994106;28;20065;-81
2022/05/22 11:30:02;;;;;;;14.77;8.45;;;30.00;91.30;;;;;;4993027;28;20030;-78
2022/05/22 11:32:55;;;;;;;14.63;8.82;;;29.70;91.50;;;;;;4994810;28;20113;-79
2022/05/22 11:35:23;;;;;;;15.38;7.32;;;29.90;91.20;;;;;;4991109;28;20111;-77
2022/05/22 11:37:58;;;;;;;13.57;7.88;;;30.20;91.50;;;;;;5007889;28;20029;-78
2022/05/22 11:40:49;;;;;;;12.98;7.90;;;30.40;91.50;;;;;;5007806;28;20038;-78
2022/05/22 11:43:36;;;;;;;17.30;7.93;;;30.10;90.90;;;;;;5007779;28;20033;-79
2022/05/22 11:46:03;;;;;;;15.52;7.90;;;29.80;90.80;;;;;;5006361;28;20461;-79
2022/05/22 11:48:47;;;;;;;10.73;7.30;;;29.80;90.90;;;;;;5002526;28;20026;-78
2022/05/22 11:51:31;;;;;;;11.45;7.43;;;30.00;90.60;;;;;;4988507;28;20044;-78
2022/05/22 11:54:09;;;;;;;11.43;6.55;;;30.10;90.90;;;;;;5003698;28;20054;-78
2022/05/22 11:56:38;;;;;;;12.40;7.03;;;30.50;90.70;;;;;;4988320;28;20045;-77
2022/05/22 11:59:21;;;;;;;14.68;7.15;;;30.30;90.80;;;;;;4995545;28;20022;-79
2022/05/22 12:02:24;;;;;;;7.70;6.90;;;30.50;90.50;;;;;;5001714;28;20041;-78
2022/05/22 12:05:13;;;;;;;11.70;6.78;;;30.00;90.60;;;;;;4991139;28;20059;-77
2022/05/22 12:07:54;;;;;;;11.20;7.15;;;29.70;90.50;;;;;;5004550;28;20064;-77
2022/05/22 12:10:29;;;;;;;10.35;6.60;;;29.90;90.80;;;;;;4994953;28;20063;-76
2022/05/22 12:13:17;;;;;;;14.68;7.20;;;30.10;90.80;;;;;;4996404;28;20026;-76
2022/05/22 12:15:54;;;;;;;10.93;7.38;;;29.80;90.50;;;;;;4990174;28;20030;-77
2022/05/22 12:18:44;;;;;;;9.13;7.03;;;29.40;90.90;;;;;;4988299;28;20085;-76
2022/05/22 12:21:40;;;;;;;11.43;6.93;;;29.20;91.10;;;;;;5005879;28;20046;-77
2022/05/22 12:24:23;;;;;;;10.95;7.25;;;29.10;91.70;;;;;;5013518;28;20050;-78
2022/05/22 12:26:50;;;;;;;15.20;7.78;;;28.70;91.60;;;;;;4996542;28;20042;-79
2022/05/22 12:29:27;;;;;;;11.88;8.75;;;28.30;91.90;;;;;;4987091;28;20030;-78
2022/05/22 12:31:58;;;;;;;14.80;8.10;;;27.70;92.30;;;;;;4999952;28;20480;-77
2022/05/22 12:34:43;;;;;;;13.43;8.07;;;27.40;92.80;;;;;;5005469;28;20025;-77
2022/05/22 12:37:15;;;;;;;14.15;9.80;;;25.20;97.30;;;;;;4993444;28;20113;-77
2022/05/22 12:39:49;;;;;;;18.08;10.05;;;23.90;99.90;;;;;;4986136;28;20045;-77
2022/05/22 12:42:24;;;;;;;17.42;8.88;;;23.60;99.90;;;;;;4988010;28;20488;-75
2022/05/22 12:44:50;;;;;;;14.90;8.77;;;24.00;99.30;;;;;;4999523;28;20033;-76
2022/05/22 12:47:16;;;;;;;10.50;6.45;;;23.90;99.90;;;;;;5002749;28;20053;-76
2022/05/22 12:50:01;;;;;;;10.20;6.00;;;23.60;99.90;;;;;;4989331;28;20041;-76
2022/05/22 12:52:33;;;;;;;22.73;6.82;;;23.60;99.90;;;;;;4987147;28;20991;-76
2022/05/22 12:55:09;;;;;;;10.40;6.30;;;23.70;99.90;;;;;;4987531;28;20108;-76
2022/05/22 12:57:35;;;;;;;12.23;6.07;;;23.60;99.90;;;;;;4986603;28;20037;-77
2022/05/22 13:00:41;;;;;;;13.93;6.32;;;23.50;99.90;;;;;;4987342;28;20046;-77
2022/05/22 13:03:22;;;;;;;12.30;6.85;;;23.40;99.90;;;;;;5006123;28;20033;-76
2022/05/22 13:06:22;;;;;;;15.40;8.00;;;23.40;99.90;;;;;;5004428;28;20077;-77
2022/05/22 13:09:19;;;;;;;13.77;7.10;;;23.70;99.90;;;;;;5003723;28;20026;-75
2022/05/22 13:11:57;;;;;;;12.70;6.40;;;24.00;99.80;;;;;;4987807;28;20424;-76
2022/05/22 13:14:28;;;;;;;12.65;6.35;;;24.50;99.80;;;;;;4994225;28;20551;-77